Time,TemperatureF,DewpointF,PressureIn,WindDirection,WindDirectionDegrees,WindSpeedMPH,WindSpeedGustMPH,Humidity,HourlyPrecipIn,Conditions,Clouds,dailyrainin,SoftwareType,DateUTC
2013-09-04 00:00:00,68.0,59.8,29.92,ESE,123,0.0,0.0,75,0.00,,,0.00,Wunderground v.1.15,2013-09-04 06:00:00,
2013-09-04 00:05:00,67.8,60.0,29.92,ESE,121,0.0,0.0,76,0.00,,,0.00,Wunderground v.1.15,2013-09-04 06:05:00,
2013-09-04 00:15:00,67.3,59.5,29.92,ESE,121,0.0,0.0,76,0.00,,,0.00,Wunderground v.1.15,2013-09-04 06:15:00,
2013-09-04 00:25:00,67.3,60.2,29.93,ESE,122,0.0,0.0,78,0.00,,,0.00,Wunderground v.1.15,2013-09-04 06:25:00,
2013-09-04 00:35:00,67.2,59.7,29.94,ESE,122,0.0,0.0,77,0.00,,,0.00,Wunderground v.1.15,2013-09-04 06:35:00,
2013-09-04 00:45:00,68.0,58.6,29.94,SW,225,0.0,0.0,72,0.00,,,0.00,Wunderground v.1.15,2013-09-04 06:45:00,
2013-09-04 00:55:00,68.6,58.4,29.95,SE,133,0.0,0.0,70,0.00,,,0.00,Wunderground v.1.15,2013-09-04 06:55:00,
2013-09-04 01:00:00,68.8,59.8,29.95,SE,132,0.0,0.0,73,0.00,,,0.00,Wunderground v.1.15,2013-09-04 07:00:00,
2013-09-04 01:10:00,68.6,59.6,29.94,SE,124,0.0,0.0,73,0.00,,,0.00,Wunderground v.1.15,2013-09-04 07:10:00,
2013-09-04 01:20:00,68.6,58.8,29.95,ESE,118,0.0,0.0,71,0.00,,,0.00,Wunderground v.1.15,2013-09-04 07:20:00,
2013-09-04 01:30:00,68.8,57.4,29.95,ESE,109,0.0,0.0,67,0.00,,,0.00,Wunderground v.1.15,2013-09-04 07:30:00,
2013-09-04 01:40:00,68.4,58.2,29.95,ESE,104,0.0,0.0,70,0.00,,,0.00,Wunderground v.1.15,2013-09-04 07:40:00,
2013-09-04 01:50:00,68.1,57.9,29.95,SSE,160,0.0,0.0,70,0.00,,,0.00,Wunderground v.1.15,2013-09-04 07:50:00,
2013-09-04 02:00:00,67.7,58.0,29.95,SSE,160,0.0,0.0,71,0.00,,,0.00,Wunderground v.1.15,2013-09-04 08:00:00,
2013-09-04 02:05:00,67.5,58.2,29.95,SSE,160,0.0,0.0,72,0.00,,,0.00,Wunderground v.1.15,2013-09-04 08:05:00,
2013-09-04 02:15:00,67.1,57.0,29.96,South,176,0.0,0.0,70,0.00,,,0.00,Wunderground v.1.15,2013-09-04 08:15:00,
2013-09-04 02:25:00,67.2,57.9,29.96,South,177,0.0,0.0,72,0.00,,,0.00,Wunderground v.1.15,2013-09-04 08:25:00,
2013-09-04 02:35:00,66.7,58.9,29.96,South,177,0.0,0.0,76,0.00,,,0.00,Wunderground v.1.15,2013-09-04 08:35:00,
2013-09-04 02:45:00,65.9,58.8,29.96,South,177,0.0,0.0,78,0.00,,,0.00,Wunderground v.1.15,2013-09-04 08:45:00,
2013-09-04 02:55:00,65.8,58.4,29.96,SSE,168,0.0,0.0,77,0.00,,,0.00,Wunderground v.1.15,2013-09-04 08:55:00,
2013-09-04 03:00:00,66.1,58.3,29.96,SE,127,0.0,0.0,76,0.00,,,0.00,Wunderground v.1.15,2013-09-04 09:00:00,
2013-09-04 03:10:00,66.1,57.9,29.96,SE,127,0.0,0.0,75,0.00,,,0.00,Wunderground v.1.15,2013-09-04 09:10:00,
2013-09-04 03:20:00,66.2,58.4,29.97,SE,124,0.0,0.0,76,0.00,,,0.00,Wunderground v.1.15,2013-09-04 09:20:00,
2013-09-04 03:30:00,66.4,57.5,29.97,SE,124,0.0,0.0,73,0.00,,,0.00,Wunderground v.1.15,2013-09-04 09:30:00,
2013-09-04 03:40:00,66.8,57.1,29.98,SSE,149,0.0,1.0,71,0.00,,,0.00,Wunderground v.1.15,2013-09-04 09:40:00,
2013-09-04 03:50:00,67.1,57.0,29.98,SE,146,0.0,0.0,70,0.00,,,0.00,Wunderground v.1.15,2013-09-04 09:50:00,
2013-09-04 04:00:00,66.9,57.2,29.98,SE,125,0.0,0.0,71,0.00,,,0.00,Wunderground v.1.15,2013-09-04 10:00:00,
2013-09-04 04:10:00,67.2,56.3,29.98,SE,132,0.0,0.0,68,0.00,,,0.00,Wunderground v.1.15,2013-09-04 10:10:00,
2013-09-04 04:20:00,67.0,56.5,29.98,ESE,120,0.0,0.0,69,0.00,,,0.00,Wunderground v.1.15,2013-09-04 10:20:00,
2013-09-04 04:30:00,66.9,54.7,29.98,ESE,119,0.0,0.0,65,0.00,,,0.00,Wunderground v.1.15,2013-09-04 10:30:00,
2013-09-04 04:40:00,66.6,54.9,29.98,ESE,119,0.0,0.0,66,0.00,,,0.00,Wunderground v.1.15,2013-09-04 10:40:00,
2013-09-04 04:50:00,65.9,53.4,29.99,ESE,118,0.0,0.0,64,0.00,,,0.00,Wunderground v.1.15,2013-09-04 10:50:00,
2013-09-04 05:00:00,65.8,53.3,29.98,ESE,114,0.0,1.0,64,0.00,,,0.00,Wunderground v.1.15,2013-09-04 11:00:00,
2013-09-04 05:10:00,66.2,52.8,29.99,SE,126,0.0,0.0,62,0.00,,,0.00,Wunderground v.1.15,2013-09-04 11:10:00,
2013-09-04 05:20:00,66.0,52.2,29.99,SE,125,0.0,0.0,61,0.00,,,0.00,Wunderground v.1.15,2013-09-04 11:20:00,
2013-09-04 05:30:00,65.3,51.5,29.99,SE,125,0.0,0.0,61,0.00,,,0.00,Wunderground v.1.15,2013-09-04 11:30:00,
2013-09-04 05:35:00,65.2,52.3,29.99,SSE,156,0.0,0.0,63,0.00,,,0.00,Wunderground v.1.15,2013-09-04 11:35:00,
2013-09-04 05:45:00,65.0,52.1,29.99,SSE,157,0.0,0.0,63,0.00,,,0.00,Wunderground v.1.15,2013-09-04 11:45:00,
2013-09-04 05:55:00,64.8,51.9,29.99,SE,146,0.0,0.0,63,0.00,,,0.00,Wunderground v.1.15,2013-09-04 11:55:00,
2013-09-04 06:00:00,65.0,51.2,29.99,SE,131,0.0,0.0,61,0.00,,,0.00,Wunderground v.1.15,2013-09-04 12:00:00,
2013-09-04 06:10:00,66.0,50.8,30.00,SE,129,0.0,0.0,58,0.00,,,0.00,Wunderground v.1.15,2013-09-04 12:10:00,
2013-09-04 06:15:00,66.1,51.4,30.00,ESE,117,0.0,0.0,59,0.00,,,0.00,Wunderground v.1.15,2013-09-04 12:15:00,
2013-09-04 06:25:00,66.6,50.4,30.00,ESE,118,0.0,0.0,56,0.00,,,0.00,Wunderground v.1.15,2013-09-04 12:25:00,
2013-09-04 06:35:00,66.9,51.6,30.01,ESE,122,0.0,0.0,58,0.00,,,0.00,Wunderground v.1.15,2013-09-04 12:35:00,
2013-09-04 06:45:00,67.2,50.0,30.01,ESE,122,0.0,0.0,54,0.00,,,0.00,Wunderground v.1.15,2013-09-04 12:45:00,
2013-09-04 06:50:00,67.3,50.1,30.01,ESE,123,0.0,0.0,54,0.00,,,0.00,Wunderground v.1.15,2013-09-04 12:50:00,
2013-09-04 07:00:00,67.2,50.0,30.02,ESE,123,0.0,0.0,54,0.00,,,0.00,Wunderground v.1.15,2013-09-04 13:00:00,
2013-09-04 07:10:00,67.9,50.1,30.02,SE,124,0.0,0.0,53,0.00,,,0.00,Wunderground v.1.15,2013-09-04 13:10:00,
2013-09-04 07:20:00,67.8,50.5,30.02,SE,127,0.0,0.0,54,0.00,,,0.00,Wunderground v.1.15,2013-09-04 13:20:00,
2013-09-04 07:30:00,68.7,50.4,30.02,ESE,121,0.0,0.0,52,0.00,,,0.00,Wunderground v.1.15,2013-09-04 13:30:00,
2013-09-04 07:35:00,69.4,50.5,30.02,SE,128,0.0,0.0,51,0.00,,,0.00,Wunderground v.1.15,2013-09-04 13:35:00,
2013-09-04 07:45:00,70.0,50.5,30.02,SE,128,1.0,1.0,50,0.00,,,0.00,Wunderground v.1.15,2013-09-04 13:45:00,
2013-09-04 07:55:00,70.9,50.2,30.03,SE,131,1.0,1.0,48,0.00,,,0.00,Wunderground v.1.15,2013-09-04 13:55:00,
2013-09-04 08:00:00,71.2,51.1,30.03,ESE,111,1.0,1.0,49,0.00,,,0.00,Wunderground v.1.15,2013-09-04 14:00:00,
2013-09-04 08:10:00,72.0,50.7,30.03,ESE,105,1.0,2.0,47,0.00,,,0.00,Wunderground v.1.15,2013-09-04 14:10:00,
2013-09-04 08:15:00,72.4,49.9,30.03,SE,146,1.0,2.0,45,0.00,,,0.00,Wunderground v.1.15,2013-09-04 14:15:00,
2013-09-04 08:25:00,73.0,49.8,30.03,SSE,149,1.0,2.0,44,0.00,,,0.00,Wunderground v.1.15,2013-09-04 14:25:00,
2013-09-04 08:35:00,73.6,49.1,30.04,ESE,114,2.0,4.0,42,0.00,,,0.00,Wunderground v.1.15,2013-09-04 14:35:00,
2013-09-04 08:45:00,74.0,48.8,30.04,SE,129,3.0,4.0,41,0.00,,,0.00,Wunderground v.1.15,2013-09-04 14:45:00,
2013-09-04 08:50:00,74.3,47.7,30.04,SSE,148,3.0,4.0,39,0.00,,,0.00,Wunderground v.1.15,2013-09-04 14:50:00,
2013-09-04 09:00:00,74.6,48.0,30.04,SSE,163,4.0,4.0,39,0.00,,,0.00,Wunderground v.1.15,2013-09-04 15:00:00,
2013-09-04 09:10:00,75.2,48.5,30.04,South,169,4.0,4.0,39,0.00,,,0.00,Wunderground v.1.15,2013-09-04 15:10:00,
2013-09-04 09:20:00,76.2,48.7,30.04,East,85,4.0,4.0,38,0.00,,,0.00,Wunderground v.1.15,2013-09-04 15:20:00,
2013-09-04 09:30:00,76.7,47.0,30.04,South,184,5.0,5.0,35,0.00,,,0.00,Wunderground v.1.15,2013-09-04 15:30:00,
2013-09-04 09:35:00,77.0,48.0,30.05,South,170,5.0,5.0,36,0.00,,,0.00,Wunderground v.1.15,2013-09-04 15:35:00,
2013-09-04 09:45:00,77.4,48.3,30.05,SSE,167,4.0,6.0,36,0.00,,,0.00,Wunderground v.1.15,2013-09-04 15:45:00,
2013-09-04 09:55:00,77.8,47.9,30.05,SSE,165,5.0,6.0,35,0.00,,,0.00,Wunderground v.1.15,2013-09-04 15:55:00,
2013-09-04 10:00:00,78.2,46.7,30.05,SSE,161,5.0,6.0,33,0.00,,,0.00,Wunderground v.1.15,2013-09-04 16:00:00,
2013-09-04 10:10:00,78.8,47.3,30.05,SSW,200,4.0,4.0,33,0.00,,,0.00,Wunderground v.1.15,2013-09-04 16:10:00,
2013-09-04 10:15:00,79.2,46.8,30.05,WSW,252,4.0,4.0,32,0.00,,,0.00,Wunderground v.1.15,2013-09-04 16:15:00,
2013-09-04 10:25:00,79.4,47.8,30.05,South,183,4.0,4.0,33,0.00,,,0.00,Wunderground v.1.15,2013-09-04 16:25:00,
2013-09-04 10:35:00,80.2,47.7,30.05,SSE,166,4.0,8.0,32,0.00,,,0.00,Wunderground v.1.15,2013-09-04 16:35:00,
2013-09-04 10:45:00,80.5,46.2,30.04,South,186,4.0,6.0,30,0.00,,,0.00,Wunderground v.1.15,2013-09-04 16:45:00,
2013-09-04 10:50:00,80.7,48.1,30.04,SE,139,4.0,4.0,32,0.00,,,0.00,Wunderground v.1.15,2013-09-04 16:50:00,
2013-09-04 11:00:00,81.6,48.0,30.04,SW,229,2.0,2.0,31,0.00,,,0.00,Wunderground v.1.15,2013-09-04 17:00:00,
2013-09-04 11:10:00,82.0,47.5,30.03,SSE,149,3.0,5.0,30,0.00,,,0.00,Wunderground v.1.15,2013-09-04 17:10:00,
2013-09-04 11:20:00,82.6,48.0,30.03,SSW,205,2.0,2.0,30,0.00,,,0.00,Wunderground v.1.15,2013-09-04 17:20:00,
2013-09-04 11:30:00,83.0,48.4,30.03,SSE,168,2.0,3.0,30,0.00,,,0.00,Wunderground v.1.15,2013-09-04 17:30:00,
2013-09-04 11:35:00,82.8,47.3,30.02,SSE,152,3.0,5.0,29,0.00,,,0.00,Wunderground v.1.15,2013-09-04 17:35:00,
2013-09-04 11:45:00,83.4,47.8,30.02,South,183,2.0,4.0,29,0.00,,,0.00,Wunderground v.1.15,2013-09-04 17:45:00,
2013-09-04 11:55:00,83.7,48.1,30.01,South,187,3.0,3.0,29,0.00,,,0.00,Wunderground v.1.15,2013-09-04 17:55:00,
2013-09-04 12:00:00,83.9,48.2,30.01,South,184,3.0,3.0,29,0.00,,,0.00,Wunderground v.1.15,2013-09-04 18:00:00,
2013-09-04 12:10:00,84.4,49.6,30.01,ESE,115,3.0,3.0,30,0.00,,,0.00,Wunderground v.1.15,2013-09-04 18:10:00,
2013-09-04 12:20:00,84.7,48.0,30.00,SW,218,3.0,3.0,28,0.00,,,0.00,Wunderground v.1.15,2013-09-04 18:20:00,
2013-09-04 12:30:00,85.1,49.3,30.00,SSW,194,3.0,8.0,29,0.00,,,0.00,Wunderground v.1.15,2013-09-04 18:30:00,
2013-09-04 12:40:00,84.6,47.9,29.99,West,276,5.0,5.0,28,0.00,,,0.00,Wunderground v.1.15,2013-09-04 18:40:00,
2013-09-04 12:50:00,85.4,47.6,29.99,South,191,1.0,5.0,27,0.00,,,0.00,Wunderground v.1.15,2013-09-04 18:50:00,
2013-09-04 13:00:00,86.3,49.4,29.99,SW,219,3.0,3.0,28,0.00,,,0.00,Wunderground v.1.15,2013-09-04 19:00:00,
2013-09-04 13:10:00,87.0,50.0,29.98,WSW,256,2.0,5.0,28,0.00,,,0.00,Wunderground v.1.15,2013-09-04 19:10:00,
2013-09-04 13:20:00,87.0,48.0,29.98,SSE,162,3.0,3.0,26,0.00,,,0.00,Wunderground v.1.15,2013-09-04 19:20:00,
2013-09-04 13:30:00,87.9,49.7,29.97,South,186,2.0,5.0,27,0.00,,,0.00,Wunderground v.1.15,2013-09-04 19:30:00,
2013-09-04 13:35:00,87.8,48.6,29.97,SSE,165,3.0,5.0,26,0.00,,,0.00,Wunderground v.1.15,2013-09-04 19:35:00,
2013-09-04 13:45:00,87.4,48.3,29.97,SW,236,4.0,4.0,26,0.00,,,0.00,Wunderground v.1.15,2013-09-04 19:45:00,
2013-09-04 13:55:00,87.2,50.1,29.97,South,172,3.0,4.0,28,0.00,,,0.00,Wunderground v.1.15,2013-09-04 19:55:00,
2013-09-04 14:05:00,88.0,48.8,29.96,South,186,3.0,6.0,26,0.00,,,0.00,Wunderground v.1.15,2013-09-04 20:05:00,
2013-09-04 14:15:00,88.3,49.1,29.95,WNW,301,2.0,3.0,26,0.00,,,0.00,Wunderground v.1.15,2013-09-04 20:15:00,
2013-09-04 14:25:00,87.8,48.6,29.95,SSW,198,3.0,8.0,26,0.00,,,0.00,Wunderground v.1.15,2013-09-04 20:25:00,
2013-09-04 14:35:00,88.0,48.8,29.95,WNW,285,2.0,4.0,26,0.00,,,0.00,Wunderground v.1.15,2013-09-04 20:35:00,
2013-09-04 14:40:00,87.5,48.4,29.94,NNW,348,2.0,3.0,26,0.00,,,0.00,Wunderground v.1.15,2013-09-04 20:40:00,
2013-09-04 14:50:00,87.7,49.6,29.94,West,260,2.0,2.0,27,0.00,,,0.00,Wunderground v.1.15,2013-09-04 20:50:00,
2013-09-04 15:00:00,88.8,48.4,29.93,SSW,207,1.0,1.0,25,0.00,,,0.00,Wunderground v.1.15,2013-09-04 21:00:00,
2013-09-04 15:10:00,88.6,47.2,29.93,NW,307,2.0,4.0,24,0.00,,,0.00,Wunderground v.1.15,2013-09-04 21:10:00,
2013-09-04 15:20:00,88.7,48.4,29.92,WSW,244,2.0,4.0,25,0.00,,,0.00,Wunderground v.1.15,2013-09-04 21:20:00,
2013-09-04 15:25:00,89.2,48.8,29.92,SSE,158,2.0,4.0,25,0.00,,,0.00,Wunderground v.1.15,2013-09-04 21:25:00,
2013-09-04 15:35:00,89.9,47.1,29.92,SE,132,2.0,4.0,23,0.00,,,0.00,Wunderground v.1.15,2013-09-04 21:35:00,
2013-09-04 15:45:00,90.4,49.8,29.92,NW,323,2.0,3.0,25,0.00,,,0.00,Wunderground v.1.15,2013-09-04 21:45:00,
2013-09-04 15:55:00,90.5,47.6,29.91,WSW,238,3.0,6.0,23,0.00,,,0.00,Wunderground v.1.15,2013-09-04 21:55:00,
2013-09-04 16:00:00,90.4,47.6,29.91,NW,314,3.0,4.0,23,0.00,,,0.00,Wunderground v.1.15,2013-09-04 22:00:00,
2013-09-04 16:10:00,90.2,48.5,29.91,WNW,296,3.0,3.0,24,0.00,,,0.00,Wunderground v.1.15,2013-09-04 22:10:00,
2013-09-04 16:20:00,90.5,49.9,29.91,SSW,201,3.0,3.0,25,0.00,,,0.00,Wunderground v.1.15,2013-09-04 22:20:00,
2013-09-04 16:30:00,90.6,48.9,29.91,West,259,2.0,6.0,24,0.00,,,0.00,Wunderground v.1.15,2013-09-04 22:30:00,
2013-09-04 16:40:00,90.8,45.5,29.90,SE,145,3.0,3.0,21,0.00,,,0.00,Wunderground v.1.15,2013-09-04 22:40:00,
2013-09-04 16:50:00,91.0,46.9,29.90,West,269,2.0,2.0,22,0.00,,,0.00,Wunderground v.1.15,2013-09-04 22:50:00,
2013-09-04 17:00:00,90.8,46.7,29.90,SE,133,2.0,7.0,22,0.00,,,0.00,Wunderground v.1.15,2013-09-04 23:00:00,
2013-09-04 17:10:00,90.8,45.5,29.90,South,180,2.0,2.0,21,0.00,,,0.00,Wunderground v.1.15,2013-09-04 23:10:00,
2013-09-04 17:20:00,91.7,46.2,29.90,SE,137,2.0,4.0,21,0.00,,,0.00,Wunderground v.1.15,2013-09-04 23:20:00,
2013-09-04 17:25:00,90.9,45.6,29.90,SSE,159,2.0,4.0,21,0.00,,,0.00,Wunderground v.1.15,2013-09-04 23:25:00,
2013-09-04 17:35:00,91.2,38.7,29.90,SE,124,2.0,3.0,16,0.00,,,0.00,Wunderground v.1.15,2013-09-04 23:35:00,
2013-09-04 17:45:00,90.7,39.9,29.90,ESE,104,5.0,12.0,17,0.00,,,0.00,Wunderground v.1.15,2013-09-04 23:45:00,
2013-09-04 17:55:00,90.4,39.6,29.90,ENE,76,4.0,5.0,17,0.00,,,0.00,Wunderground v.1.15,2013-09-04 23:55:00,
2013-09-04 18:00:00,90.4,39.6,29.90,ESE,113,4.0,4.0,17,0.00,,,0.00,Wunderground v.1.15,2013-09-05 00:00:00,
2013-09-04 18:10:00,90.0,37.8,29.90,ENE,60,4.0,6.0,16,0.00,,,0.00,Wunderground v.1.15,2013-09-05 00:10:00,
2013-09-04 18:20:00,89.3,38.8,29.91,SE,132,4.0,8.0,17,0.00,,,0.00,Wunderground v.1.15,2013-09-05 00:20:00,
2013-09-04 18:30:00,88.9,39.9,29.91,ESE,114,5.0,5.0,18,0.00,,,0.00,Wunderground v.1.15,2013-09-05 00:30:00,
2013-09-04 18:40:00,88.5,39.6,29.91,ESE,116,3.0,3.0,18,0.00,,,0.00,Wunderground v.1.15,2013-09-05 00:40:00,
2013-09-04 18:50:00,88.0,39.2,29.91,SE,126,5.0,5.0,18,0.00,,,0.00,Wunderground v.1.15,2013-09-05 00:50:00,
2013-09-04 19:00:00,87.5,37.3,29.91,SE,127,5.0,5.0,17,0.00,,,0.00,Wunderground v.1.15,2013-09-05 01:00:00,
2013-09-04 19:10:00,86.6,38.0,29.91,ESE,111,5.0,5.0,18,0.00,,,0.00,Wunderground v.1.15,2013-09-05 01:10:00,
2013-09-04 19:20:00,85.8,37.4,29.92,East,89,5.0,5.0,18,0.00,,,0.00,Wunderground v.1.15,2013-09-05 01:20:00,
2013-09-04 19:25:00,85.5,37.1,29.92,SE,131,4.0,5.0,18,0.00,,,0.00,Wunderground v.1.15,2013-09-05 01:25:00,
2013-09-04 19:35:00,84.9,38.0,29.92,ESE,110,4.0,4.0,19,0.00,,,0.00,Wunderground v.1.15,2013-09-05 01:35:00,
2013-09-04 19:45:00,84.2,37.5,29.93,ESE,104,3.0,5.0,19,0.00,,,0.00,Wunderground v.1.15,2013-09-05 01:45:00,
2013-09-04 19:55:00,83.9,38.5,29.93,ESE,119,4.0,4.0,20,0.00,,,0.00,Wunderground v.1.15,2013-09-05 01:55:00,
2013-09-04 20:00:00,83.6,38.3,29.93,ENE,70,4.0,7.0,20,0.00,,,0.00,Wunderground v.1.15,2013-09-05 02:00:00,
2013-09-04 20:10:00,83.1,39.1,29.94,SE,130,4.0,8.0,21,0.00,,,0.00,Wunderground v.1.15,2013-09-05 02:10:00,
2013-09-04 20:20:00,82.9,38.9,29.95,SE,139,6.0,8.0,21,0.00,,,0.00,Wunderground v.1.15,2013-09-05 02:20:00,
2013-09-04 20:30:00,82.7,40.0,29.96,SE,137,6.0,6.0,22,0.00,,,0.00,Wunderground v.1.15,2013-09-05 02:30:00,
2013-09-04 20:40:00,82.2,40.7,29.97,ESE,110,5.0,6.0,23,0.00,,,0.00,Wunderground v.1.15,2013-09-05 02:40:00,
2013-09-04 20:50:00,81.9,40.5,29.97,SE,129,5.0,6.0,23,0.00,,,0.00,Wunderground v.1.15,2013-09-05 02:50:00,
2013-09-04 21:00:00,81.5,40.1,29.98,SE,135,6.0,6.0,23,0.00,,,0.00,Wunderground v.1.15,2013-09-05 03:00:00,
2013-09-04 21:10:00,81.0,39.7,29.98,ESE,113,5.0,6.0,23,0.00,,,0.00,Wunderground v.1.15,2013-09-05 03:10:00,
2013-09-04 21:20:00,80.7,40.5,29.98,East,80,5.0,5.0,24,0.00,,,0.00,Wunderground v.1.15,2013-09-05 03:20:00,
2013-09-04 21:30:00,80.3,40.2,29.99,East,86,5.0,5.0,24,0.00,,,0.00,Wunderground v.1.15,2013-09-05 03:30:00,
2013-09-04 21:40:00,80.0,37.7,29.99,East,81,5.0,5.0,22,0.00,,,0.00,Wunderground v.1.15,2013-09-05 03:40:00,
2013-09-04 21:50:00,79.8,36.4,29.99,SE,139,6.0,7.0,21,0.00,,,0.00,Wunderground v.1.15,2013-09-05 03:50:00,
2013-09-04 22:00:00,79.4,34.8,30.00,SE,141,4.0,8.0,20,0.00,,,0.00,Wunderground v.1.15,2013-09-05 04:00:00,
2013-09-04 22:05:00,79.3,36.0,30.00,East,98,4.0,8.0,21,0.00,,,0.00,Wunderground v.1.15,2013-09-05 04:05:00,
2013-09-04 22:10:00,79.1,34.6,30.00,ESE,111,4.0,4.0,20,0.00,,,0.00,Wunderground v.1.15,2013-09-05 04:10:00,
2013-09-04 22:15:00,79.0,34.5,30.00,SSE,162,5.0,8.0,20,0.00,,,0.00,Wunderground v.1.15,2013-09-05 04:15:00,
2013-09-04 22:25:00,79.0,34.5,30.01,ESE,110,5.0,9.0,20,0.00,,,0.00,Wunderground v.1.15,2013-09-05 04:25:00,
2013-09-04 22:35:00,78.7,34.2,30.01,East,97,4.0,4.0,20,0.00,,,0.00,Wunderground v.1.15,2013-09-05 04:35:00,
2013-09-04 22:45:00,78.4,35.2,30.01,ESE,102,4.0,4.0,21,0.00,,,0.00,Wunderground v.1.15,2013-09-05 04:45:00,
2013-09-04 22:50:00,78.2,35.0,30.01,East,90,4.0,4.0,21,0.00,,,0.00,Wunderground v.1.15,2013-09-05 04:50:00,
2013-09-04 22:55:00,78.2,36.2,30.01,East,89,4.0,4.0,22,0.00,,,0.00,Wunderground v.1.15,2013-09-05 04:55:00,
2013-09-04 23:00:00,78.0,36.1,30.01,ESE,108,4.0,4.0,22,0.00,,,0.00,Wunderground v.1.15,2013-09-05 05:00:00,
2013-09-04 23:05:00,77.9,36.0,30.01,SE,128,4.0,5.0,22,0.00,,,0.00,Wunderground v.1.15,2013-09-05 05:05:00,
2013-09-04 23:15:00,77.8,37.0,30.01,East,80,5.0,5.0,23,0.00,,,0.00,Wunderground v.1.15,2013-09-05 05:15:00,
2013-09-04 23:25:00,77.5,36.8,30.01,SE,127,4.0,5.0,23,0.00,,,0.00,Wunderground v.1.15,2013-09-05 05:25:00,
2013-09-04 23:35:00,77.3,36.6,30.01,SE,129,5.0,5.0,23,0.00,,,0.00,Wunderground v.1.15,2013-09-05 05:35:00,
2013-09-04 23:45:00,77.0,37.4,30.00,ENE,68,5.0,5.0,24,0.00,,,0.00,Wunderground v.1.15,2013-09-05 05:45:00,
2013-09-04 23:55:00,76.6,37.1,30.00,East,100,3.0,4.0,24,0.00,,,0.00,Wunderground v.1.15,2013-09-05 05:55:00,